Time;durP1;ratioP1;P1;durP2;ratioP2;P2;SDS_P1;SDS_P2;PMS_P1;PMS_P2;Temp;Humidity;BMP_temperature;BMP_pressure;BME280_temperature;BME280_humidity;BME280_pressure;Samples;Min_cycle;Max_cycle;Signal;HPM_P1;HPM_P2
2020/12/04 00:01:39;;;;;;;95.47;50.53;;;-1.80;95.00;;;;;;5094983;28;20400;-75
2020/12/04 00:04:06;;;;;;;96.43;50.08;;;-1.80;95.10;;;;;;5091832;28;20784;-75
2020/12/04 00:06:33;;;;;;;100.07;51.65;;;-1.90;95.00;;;;;;5112644;28;20404;-75
2020/12/04 00:09:01;;;;;;;99.53;51.70;;;-1.90;95.10;;;;;;5107880;27;20416;-74
2020/12/04 00:11:32;;;;;;;92.43;49.53;;;-1.90;95.10;;;;;;5094769;28;20450;-74
2020/12/04 00:14:01;;;;;;;102.97;53.88;;;-1.90;95.00;;;;;;5109824;27;20408;-74
2020/12/04 00:16:30;;;;;;;94.00;48.92;;;-1.80;95.20;;;;;;5094517;28;20424;-75
2020/12/04 00:18:56;;;;;;;91.72;48.90;;;-1.50;94.70;;;;;;5094225;28;20510;-75
2020/12/04 00:21:22;;;;;;;90.82;48.58;;;-1.60;94.10;;;;;;5091348;28;20404;-75
2020/12/04 00:23:49;;;;;;;91.63;48.83;;;-1.60;94.10;;;;;;5094528;28;20694;-74
2020/12/04 00:26:18;;;;;;;94.80;50.75;;;-1.70;94.40;;;;;;5090623;28;20459;-75
2020/12/04 00:28:44;;;;;;;93.37;49.17;;;-1.90;94.70;;;;;;5112001;28;20426;-75
2020/12/04 00:31:10;;;;;;;93.72;49.08;;;-1.80;94.70;;;;;;5090783;28;20857;-74
2020/12/04 00:33:37;;;;;;;94.07;49.15;;;-1.80;94.80;;;;;;5094227;28;20404;-75
2020/12/04 00:36:03;;;;;;;91.93;49.22;;;-1.80;94.70;;;;;;5108682;28;20506;-75
2020/12/04 00:38:32;;;;;;;91.60;48.77;;;-1.80;95.00;;;;;;5112153;28;20497;-74
2020/12/04 00:41:00;;;;;;;92.43;48.45;;;-1.80;94.80;;;;;;5090638;28;20466;-75
2020/12/04 00:43:29;;;;;;;95.45;49.88;;;-1.80;94.90;;;;;;5111773;28;20400;-75
2020/12/04 00:45:55;;;;;;;91.50;48.63;;;-1.80;95.10;;;;;;5090418;28;20497;-75
2020/12/04 00:48:22;;;;;;;88.03;47.90;;;-1.90;95.10;;;;;;5112063;28;20400;-74
2020/12/04 00:50:48;;;;;;;96.15;48.90;;;-1.90;95.00;;;;;;5093752;28;20443;-75
2020/12/04 00:53:17;;;;;;;99.78;50.67;;;-1.80;95.00;;;;;;5108503;28;20836;-75
2020/12/04 00:55:43;;;;;;;93.80;48.23;;;-1.80;95.10;;;;;;5093773;28;20791;-75
2020/12/04 00:58:10;;;;;;;94.90;49.22;;;-1.80;94.60;;;;;;5108375;28;20408;-75
2020/12/04 01:00:36;;;;;;;87.55;47.25;;;-1.80;94.90;;;;;;5111380;28;20404;-74
2020/12/04 01:03:02;;;;;;;89.37;46.97;;;-1.80;94.70;;;;;;5102147;27;20750;-75
2020/12/04 01:05:31;;;;;;;88.68;47.58;;;-1.70;94.80;;;;;;5105626;28;20424;-75
2020/12/04 01:07:57;;;;;;;86.15;46.05;;;-1.80;94.60;;;;;;5108055;28;20418;-75
2020/12/04 01:10:24;;;;;;;85.60;45.03;;;-1.70;94.50;;;;;;5111089;28;20444;-75
2020/12/04 01:12:53;;;;;;;84.72;45.08;;;-1.70;94.60;;;;;;5090107;28;20404;-75
2020/12/04 01:15:21;;;;;;;82.18;44.58;;;-1.60;94.30;;;;;;5110828;28;20420;-75
2020/12/04 01:17:48;;;;;;;83.00;44.90;;;-1.50;94.00;;;;;;5090082;28;20404;-74
2020/12/04 01:20:16;;;;;;;87.28;46.83;;;-1.60;94.10;;;;;;5093188;28;20432;-75
2020/12/04 01:22:46;;;;;;;80.97;43.20;;;-1.70;94.40;;;;;;5109104;28;20444;-75
2020/12/04 01:25:13;;;;;;;90.05;46.45;;;-1.60;94.10;;;;;;5090488;28;20418;-75
2020/12/04 01:27:39;;;;;;;80.63;44.03;;;-1.60;94.30;;;;;;5090921;28;20402;-75
2020/12/04 01:30:29;;;;;;;84.38;44.15;;;-1.50;94.10;;;;;;5109278;28;20460;-75
2020/12/04 01:32:56;;;;;;;86.70;46.17;;;-1.60;93.90;;;;;;5093298;28;20408;-75
2020/12/04 01:35:22;;;;;;;79.38;43.83;;;-1.70;94.20;;;;;;5089886;28;20481;-74
2020/12/04 01:37:49;;;;;;;79.30;43.63;;;-1.60;94.10;;;;;;5110978;28;20392;-75
2020/12/04 01:40:19;;;;;;;78.13;43.72;;;-1.80;94.20;;;;;;5090213;28;20404;-74
2020/12/04 01:42:48;;;;;;;83.60;45.08;;;-1.60;94.40;;;;;;5111525;28;20497;-75
2020/12/04 01:45:14;;;;;;;79.78;44.15;;;-1.70;94.20;;;;;;5089157;28;20412;-74
2020/12/04 01:47:41;;;;;;;73.70;41.57;;;-1.90;94.50;;;;;;5092909;28;20405;-74
2020/12/04 01:50:07;;;;;;;75.82;42.15;;;-1.80;94.60;;;;;;5108140;27;20455;-75
2020/12/04 01:52:36;;;;;;;76.85;42.92;;;-1.90;94.70;;;;;;5110752;28;20400;-75
2020/12/04 01:55:02;;;;;;;78.88;43.05;;;-1.90;94.80;;;;;;5103165;28;20421;-74
2020/12/04 01:57:34;;;;;;;77.80;42.57;;;-2.00;94.80;;;;;;5072908;28;20406;-74
2020/12/04 02:00:05;;;;;;;77.70;43.23;;;-2.00;94.90;;;;;;5089207;28;20559;-75
2020/12/04 02:02:32;;;;;;;79.38;44.67;;;-2.00;94.90;;;;;;5113537;28;20432;-74
2020/12/04 02:04:58;;;;;;;85.35;44.90;;;-2.00;94.90;;;;;;5129933;27;20395;-74
2020/12/04 02:07:39;;;;;;;85.20;46.15;;;-2.00;95.00;;;;;;5090065;28;20400;-75
2020/12/04 02:10:24;;;;;;;82.38;45.33;;;-2.10;95.00;;;;;;5110571;28;20422;-74
2020/12/04 02:12:51;;;;;;;86.07;45.53;;;-2.00;95.10;;;;;;5092076;28;20404;-75
2020/12/04 02:15:18;;;;;;;81.77;45.10;;;-2.00;95.20;;;;;;5092819;28;20491;-74
2020/12/04 02:17:47;;;;;;;81.00;44.85;;;-1.90;95.10;;;;;;5089305;28;20451;-75
2020/12/04 02:20:13;;;;;;;83.10;45.42;;;-1.90;94.90;;;;;;5092521;28;20431;-75
2020/12/04 02:22:40;;;;;;;83.17;46.03;;;-1.90;94.80;;;;;;5089332;28;20854;-75
2020/12/04 02:25:09;;;;;;;83.22;44.83;;;-1.90;95.00;;;;;;5110196;28;20795;-75
2020/12/04 02:27:44;;;;;;;83.23;45.93;;;-1.90;95.10;;;;;;5089625;28;20460;-75
2020/12/04 02:30:16;;;;;;;77.80;43.15;;;-1.90;95.00;;;;;;5110383;28;20932;-74
2020/12/04 02:32:45;;;;;;;78.80;43.83;;;-1.80;94.60;;;;;;5089216;28;20462;-75
2020/12/04 02:35:12;;;;;;;73.13;41.15;;;-1.90;94.80;;;;;;5094498;28;20844;-75
2020/12/04 02:37:38;;;;;;;75.87;42.57;;;-2.00;94.80;;;;;;5127963;28;20403;-75
2020/12/04 02:40:05;;;;;;;77.32;42.10;;;-2.00;94.90;;;;;;5145970;28;20503;-75
2020/12/04 02:42:32;;;;;;;72.83;41.60;;;-2.00;95.00;;;;;;5116241;28;20795;-75
2020/12/04 02:44:58;;;;;;;78.05;44.00;;;-1.80;94.60;;;;;;5092535;28;20906;-74
2020/12/04 02:47:26;;;;;;;80.03;44.50;;;-1.90;94.50;;;;;;5110356;28;20482;-74
2020/12/04 02:49:57;;;;;;;82.65;45.70;;;-2.00;94.80;;;;;;5088880;28;20441;-75
2020/12/04 02:52:24;;;;;;;86.65;46.10;;;-2.00;95.10;;;;;;5092179;28;20425;-75
2020/12/04 02:54:50;;;;;;;87.32;46.92;;;-1.90;94.70;;;;;;5106730;28;20405;-75
2020/12/04 02:57:21;;;;;;;83.57;46.22;;;-1.90;95.00;;;;;;5109911;28;20452;-75
2020/12/04 02:59:50;;;;;;;78.97;43.45;;;-1.80;95.00;;;;;;5106583;28;20438;-74
2020/12/04 03:02:17;;;;;;;82.38;44.35;;;-1.60;94.60;;;;;;5109927;28;20435;-74
2020/12/04 03:04:45;;;;;;;87.30;45.05;;;-1.60;94.40;;;;;;5089016;28;20440;-74
2020/12/04 03:07:14;;;;;;;86.50;46.00;;;-1.60;94.20;;;;;;5109928;28;20424;-74
2020/12/04 03:09:43;;;;;;;87.20;47.60;;;-1.70;94.30;;;;;;5088937;28;20416;-75
2020/12/04 03:12:09;;;;;;;93.05;48.15;;;-1.70;94.30;;;;;;5109719;28;20400;-74
2020/12/04 03:14:38;;;;;;;97.15;49.70;;;-1.80;94.60;;;;;;5106771;28;20408;-74
2020/12/04 03:17:06;;;;;;;90.25;46.65;;;-2.00;95.10;;;;;;5095739;28;20424;-75
2020/12/04 03:19:35;;;;;;;85.07;45.03;;;-1.90;94.80;;;;;;5109800;28;20413;-74
2020/12/04 03:22:01;;;;;;;82.57;45.45;;;-1.80;94.70;;;;;;5096061;28;20436;-75
2020/12/04 03:24:28;;;;;;;91.00;47.53;;;-1.70;94.60;;;;;;5113177;28;20440;-75
2020/12/04 03:26:55;;;;;;;98.10;49.85;;;-1.70;94.40;;;;;;5090938;28;20496;-74
2020/12/04 03:29:23;;;;;;;95.07;48.55;;;-1.90;94.60;;;;;;5075229;28;20528;-74
2020/12/04 03:31:52;;;;;;;96.60;49.28;;;-1.90;94.80;;;;;;5090507;28;20449;-74
2020/12/04 03:34:18;;;;;;;92.07;49.20;;;-1.90;94.80;;;;;;5092657;28;20402;-75
2020/12/04 03:36:47;;;;;;;100.10;49.90;;;-2.00;95.00;;;;;;5102532;28;20926;-75
2020/12/04 03:39:16;;;;;;;97.70;50.75;;;-2.10;95.10;;;;;;5113382;28;20467;-75
2020/12/04 03:41:42;;;;;;;99.07;50.03;;;-2.10;95.40;;;;;;5109477;28;20462;-75
2020/12/04 03:44:11;;;;;;;90.72;47.83;;;-2.10;95.50;;;;;;5095325;28;20494;-75
2020/12/04 03:46:38;;;;;;;92.40;48.42;;;-2.10;95.40;;;;;;5091952;28;20404;-74
2020/12/04 03:49:04;;;;;;;101.47;49.97;;;-2.00;95.50;;;;;;5112883;28;20404;-74
2020/12/04 03:51:33;;;;;;;108.35;51.67;;;-2.10;95.30;;;;;;5092013;27;20465;-74
2020/12/04 03:53:59;;;;;;;112.33;51.53;;;-2.10;95.50;;;;;;5112699;28;20845;-74
2020/12/04 03:56:28;;;;;;;104.85;52.15;;;-2.20;95.60;;;;;;5110021;28;20762;-75
2020/12/04 03:58:54;;;;;;;97.50;49.00;;;-2.10;95.90;;;;;;5073823;28;20436;-74
2020/12/04 04:01:20;;;;;;;101.38;49.53;;;-1.90;95.30;;;;;;5074793;28;20460;-75
2020/12/04 04:03:47;;;;;;;98.03;48.93;;;-2.00;95.30;;;;;;5088958;28;20509;-75
2020/12/04 04:06:13;;;;;;;102.45;51.13;;;-2.00;95.30;;;;;;5112801;28;20445;-74
2020/12/04 04:08:39;;;;;;;102.55;50.03;;;-2.00;95.50;;;;;;5109320;28;20481;-74
2020/12/04 04:11:10;;;;;;;97.00;49.63;;;-2.00;95.40;;;;;;5112763;28;20458;-74
2020/12/04 04:13:37;;;;;;;96.88;49.40;;;-2.00;95.00;;;;;;5091201;28;20405;-74
2020/12/04 04:16:05;;;;;;;95.90;48.92;;;-1.90;95.30;;;;;;5112347;28;20485;-75
2020/12/04 04:18:32;;;;;;;108.55;52.45;;;-2.00;94.80;;;;;;5109207;28;20416;-74
2020/12/04 04:21:01;;;;;;;106.95;50.40;;;-1.90;95.00;;;;;;5112194;28;20859;-74
2020/12/04 04:23:27;;;;;;;102.18;50.83;;;-1.90;94.90;;;;;;5108977;28;20426;-75
2020/12/04 04:25:54;;;;;;;109.57;50.13;;;-2.10;95.00;;;;;;5112109;28;20444;-74
2020/12/04 04:28:20;;;;;;;104.55;48.72;;;-2.20;95.30;;;;;;5108087;27;20853;-74
2020/12/04 04:30:49;;;;;;;94.70;44.83;;;-1.90;95.10;;;;;;5115189;27;20792;-74
2020/12/04 04:33:17;;;;;;;112.90;47.55;;;-1.80;94.60;;;;;;5132884;27;20483;-74
2020/12/04 04:35:44;;;;;;;115.40;48.22;;;-1.90;94.60;;;;;;5091625;27;20517;-75
2020/12/04 04:38:12;;;;;;;94.32;46.95;;;-2.00;94.90;;;;;;5091783;28;20402;-74
2020/12/04 04:40:39;;;;;;;96.47;48.25;;;-2.00;94.80;;;;;;5070561;28;20455;-74
2020/12/04 04:43:11;;;;;;;87.32;45.38;;;-2.10;95.00;;;;;;5073779;28;20455;-74
2020/12/04 04:45:45;;;;;;;102.00;47.55;;;-2.30;95.30;;;;;;5100947;28;20420;-75
2020/12/04 04:48:18;;;;;;;95.88;47.70;;;-2.30;95.50;;;;;;5094106;28;20404;-75
2020/12/04 04:50:47;;;;;;;96.15;47.92;;;-2.30;95.70;;;;;;5090314;28;20396;-75
2020/12/04 04:53:16;;;;;;;91.82;44.90;;;-2.30;95.90;;;;;;5093883;28;20848;-74
2020/12/04 04:55:42;;;;;;;83.27;43.97;;;-2.00;95.50;;;;;;5108194;28;20460;-74
2020/12/04 04:58:09;;;;;;;89.00;46.03;;;-2.10;95.10;;;;;;5111829;28;20400;-74
2020/12/04 05:00:38;;;;;;;112.20;47.42;;;-2.20;95.20;;;;;;5090352;28;20420;-75
2020/12/04 05:03:08;;;;;;;96.00;47.60;;;-2.10;95.40;;;;;;5093856;28;20395;-75
2020/12/04 05:05:49;;;;;;;99.97;49.67;;;-2.30;95.30;;;;;;5108237;28;20416;-75
2020/12/04 05:08:21;;;;;;;93.03;48.88;;;-2.40;95.70;;;;;;5111318;28;20446;-75
2020/12/04 05:10:49;;;;;;;100.05;50.33;;;-2.40;95.90;;;;;;5093038;27;20438;-74
2020/12/04 05:13:23;;;;;;;102.53;49.85;;;-2.40;96.00;;;;;;5111503;28;20466;-75
2020/12/04 05:15:50;;;;;;;97.10;49.92;;;-2.30;96.00;;;;;;5093631;28;20424;-75
2020/12/04 05:18:18;;;;;;;98.97;49.63;;;-2.30;95.80;;;;;;5107522;28;20404;-75
2020/12/04 05:20:53;;;;;;;99.68;50.63;;;-2.30;95.90;;;;;;5111093;28;20404;-75
2020/12/04 05:23:23;;;;;;;96.85;49.78;;;-2.30;96.00;;;;;;5089774;28;20777;-74
2020/12/04 05:25:55;;;;;;;91.30;47.85;;;-2.30;96.10;;;;;;5110988;28;20408;-74
2020/12/04 05:28:29;;;;;;;93.15;48.45;;;-2.30;96.00;;;;;;5088432;28;20396;-75
2020/12/04 05:31:10;;;;;;;92.22;49.47;;;-2.20;96.00;;;;;;5093229;28;20436;-75
2020/12/04 05:33:40;;;;;;;96.90;50.28;;;-2.20;96.00;;;;;;5073861;28;20413;-74
2020/12/04 05:36:07;;;;;;;100.28;51.38;;;-2.20;96.00;;;;;;5090440;28;20493;-74
2020/12/04 05:38:33;;;;;;;104.18;51.40;;;-2.20;96.10;;;;;;5087408;28;20397;-75
2020/12/04 05:41:08;;;;;;;102.43;52.40;;;-2.20;96.30;;;;;;5090819;28;20487;-75
2020/12/04 05:43:39;;;;;;;100.53;51.85;;;-2.20;96.20;;;;;;5064399;28;20453;-75
2020/12/04 05:46:23;;;;;;;112.60;53.87;;;-2.30;96.20;;;;;;5073041;28;20712;-75
2020/12/04 05:49:08;;;;;;;115.30;54.10;;;-2.30;96.30;;;;;;5068407;28;20490;-75
2020/12/04 05:51:38;;;;;;;112.90;53.97;;;-2.20;96.20;;;;;;5072859;28;20730;-74
2020/12/04 05:54:08;;;;;;;117.22;50.13;;;-2.20;96.30;;;;;;5078524;28;20485;-75
2020/12/04 05:56:34;;;;;;;109.30;49.53;;;-1.90;96.20;;;;;;5070467;28;20442;-74
2020/12/04 05:59:13;;;;;;;113.57;48.20;;;-1.80;95.60;;;;;;5055327;28;20406;-74
2020/12/04 06:01:45;;;;;;;119.97;49.83;;;-1.80;95.30;;;;;;5090034;28;20475;-75
2020/12/04 06:04:16;;;;;;;89.20;46.85;;;-1.80;95.40;;;;;;5087291;28;20414;-75
2020/12/04 06:06:46;;;;;;;98.57;49.72;;;-1.80;95.10;;;;;;5090590;28;20433;-75
2020/12/04 06:09:14;;;;;;;104.18;50.70;;;-2.00;95.30;;;;;;5068870;28;20443;-74
2020/12/04 06:11:46;;;;;;;105.03;48.92;;;-2.00;95.80;;;;;;5072329;28;20398;-74
2020/12/04 06:14:20;;;;;;;110.20;47.38;;;-2.00;95.80;;;;;;5088169;28;20398;-75
2020/12/04 06:17:10;;;;;;;110.40;49.33;;;-1.90;95.60;;;;;;5052165;28;20459;-74
2020/12/04 06:19:43;;;;;;;104.63;48.40;;;-1.80;95.30;;;;;;5067989;28;20394;-74
2020/12/04 06:22:10;;;;;;;101.40;47.53;;;-1.80;95.10;;;;;;5089797;28;20418;-75
2020/12/04 06:24:54;;;;;;;117.05;46.10;;;-1.80;95.00;;;;;;5089989;28;20468;-74
2020/12/04 06:27:46;;;;;;;106.22;48.85;;;-1.70;94.90;;;;;;5056977;28;20418;-75
2020/12/04 06:30:17;;;;;;;110.43;51.90;;;-1.90;94.90;;;;;;5086453;28;20409;-74
2020/12/04 06:32:48;;;;;;;116.85;53.03;;;-2.10;95.50;;;;;;5069587;28;20851;-74
2020/12/04 06:35:42;;;;;;;115.13;49.83;;;-2.30;95.90;;;;;;5052134;28;20407;-74
2020/12/04 06:38:34;;;;;;;106.85;51.28;;;-2.00;95.90;;;;;;5069520;28;20458;-74
2020/12/04 06:41:37;;;;;;;104.93;52.38;;;-2.20;95.60;;;;;;5068703;28;20468;-75
2020/12/04 06:44:15;;;;;;;95.32;48.85;;;-2.20;96.00;;;;;;5071966;28;20414;-74
2020/12/04 06:46:46;;;;;;;100.05;48.05;;;-2.10;96.00;;;;;;5081907;28;20480;-74
2020/12/04 06:52:23;;;;;;;94.93;47.20;;;-1.90;95.50;;;;;;5075913;28;20505;-74
2020/12/04 06:54:52;;;;;;;90.97;47.03;;;-1.90;94.90;;;;;;5093667;28;20458;-74
2020/12/04 06:57:22;;;;;;;99.85;46.67;;;-2.00;95.10;;;;;;5088907;28;20876;-75
2020/12/04 06:59:49;;;;;;;89.97;45.85;;;-2.00;95.40;;;;;;5093868;28;20441;-74
2020/12/04 07:02:24;;;;;;;99.97;46.97;;;-1.90;95.10;;;;;;5071971;28;20410;-74
2020/12/04 07:04:52;;;;;;;91.53;46.55;;;-2.00;95.40;;;;;;5093459;28;20426;-75
2020/12/04 07:07:26;;;;;;;84.88;43.47;;;-2.00;95.10;;;;;;5072291;28;20471;-74
2020/12/04 07:10:03;;;;;;;87.10;46.03;;;-1.80;95.00;;;;;;5075569;28;20486;-75
2020/12/04 07:12:33;;;;;;;90.35;47.35;;;-1.90;94.80;;;;;;5090431;28;20426;-74
2020/12/04 07:15:00;;;;;;;83.43;44.83;;;-2.10;95.30;;;;;;5093352;28;20438;-74
2020/12/04 07:17:29;;;;;;;88.72;45.95;;;-2.10;95.60;;;;;;5072643;28;20430;-74
2020/12/04 07:19:59;;;;;;;81.20;44.22;;;-2.00;95.80;;;;;;5085873;28;20866;-74
2020/12/04 07:22:27;;;;;;;88.95;45.35;;;-2.00;95.30;;;;;;5074811;28;21031;-75
2020/12/04 07:24:55;;;;;;;79.97;42.70;;;-2.00;95.60;;;;;;5090365;28;20402;-74
2020/12/04 07:27:27;;;;;;;81.88;42.97;;;-1.90;94.90;;;;;;5095738;28;20564;-74
2020/12/04 07:29:53;;;;;;;83.00;44.05;;;-2.00;95.10;;;;;;5109757;28;20400;-75
2020/12/04 07:32:21;;;;;;;87.63;45.55;;;-2.10;95.40;;;;;;5095598;28;20388;-74
2020/12/04 07:34:48;;;;;;;85.32;45.60;;;-2.10;95.50;;;;;;5109769;28;20497;-74
2020/12/04 07:37:15;;;;;;;83.10;44.85;;;-2.10;95.70;;;;;;5095248;28;20868;-75
2020/12/04 07:39:42;;;;;;;81.15;43.97;;;-2.10;95.50;;;;;;5115720;27;20523;-74
2020/12/04 07:42:12;;;;;;;78.72;42.88;;;-2.10;95.40;;;;;;5140249;27;20429;-75
2020/12/04 07:44:45;;;;;;;77.05;41.25;;;-2.00;95.30;;;;;;5143222;27;20403;-75
2020/12/04 07:47:14;;;;;;;78.03;39.58;;;-1.80;95.20;;;;;;5145421;27;20430;-75
2020/12/04 07:49:48;;;;;;;73.00;40.50;;;-1.50;94.30;;;;;;5131974;27;20434;-74
2020/12/04 07:52:17;;;;;;;75.73;41.93;;;-1.60;94.10;;;;;;5112521;28;20924;-75
2020/12/04 07:54:45;;;;;;;73.77;40.80;;;-1.70;94.60;;;;;;5074874;28;20467;-74
2020/12/04 07:57:12;;;;;;;71.20;39.92;;;-1.70;94.60;;;;;;5108079;28;20420;-74
2020/12/04 07:59:39;;;;;;;73.88;40.22;;;-1.80;94.40;;;;;;5112800;28;20497;-74
2020/12/04 08:02:07;;;;;;;71.15;39.28;;;-1.70;94.50;;;;;;5108939;28;20497;-74
2020/12/04 08:04:35;;;;;;;67.38;38.65;;;-1.70;93.90;;;;;;5112987;28;20408;-75
2020/12/04 08:07:12;;;;;;;66.13;38.05;;;-1.60;94.30;;;;;;5101557;28;20470;-74
2020/12/04 08:09:43;;;;;;;68.07;38.37;;;-1.60;94.00;;;;;;5117394;27;20496;-74
2020/12/04 08:12:18;;;;;;;68.57;38.73;;;-1.50;93.70;;;;;;5087009;28;20428;-74
2020/12/04 08:14:54;;;;;;;64.85;38.38;;;-1.60;93.90;;;;;;5109235;27;20416;-74
2020/12/04 08:17:22;;;;;;;62.50;36.03;;;-1.70;94.10;;;;;;5101528;28;20485;-74
2020/12/04 08:19:52;;;;;;;66.07;37.85;;;-1.70;93.90;;;;;;5102056;28;20397;-75
2020/12/04 08:22:32;;;;;;;66.57;38.60;;;-1.80;94.30;;;;;;5089623;28;20408;-74
2020/12/04 08:25:07;;;;;;;69.00;39.10;;;-1.90;94.40;;;;;;5092914;28;20824;-74
2020/12/04 08:27:41;;;;;;;66.28;37.33;;;-1.90;94.60;;;;;;5089336;28;20400;-74
2020/12/04 08:30:19;;;;;;;63.72;37.10;;;-1.90;94.60;;;;;;5118194;27;20424;-74
2020/12/04 08:33:06;;;;;;;63.67;38.83;;;-1.80;94.30;;;;;;5108327;28;20779;-75
2020/12/04 08:35:33;;;;;;;65.35;37.70;;;-1.60;94.00;;;;;;5093887;28;20415;-74
2020/12/04 08:38:09;;;;;;;62.78;36.80;;;-1.70;94.10;;;;;;5089130;28;20400;-75
2020/12/04 08:40:37;;;;;;;59.03;34.25;;;-1.60;94.20;;;;;;5110579;27;20412;-74
2020/12/04 08:43:18;;;;;;;61.88;36.50;;;-1.50;93.40;;;;;;5086257;28;20413;-75
2020/12/04 08:45:49;;;;;;;63.20;36.90;;;-1.50;93.50;;;;;;5072405;28;20904;-74
2020/12/04 08:48:18;;;;;;;61.85;36.50;;;-1.40;93.40;;;;;;5090305;28;20485;-74
2020/12/04 08:50:47;;;;;;;62.15;36.10;;;-1.20;93.10;;;;;;5110668;28;20419;-74
2020/12/04 08:53:16;;;;;;;60.33;36.10;;;-1.20;93.10;;;;;;5121217;27;20463;-74
2020/12/04 08:55:49;;;;;;;60.65;36.75;;;-1.20;93.00;;;;;;5109343;28;20412;-73
2020/12/04 08:58:20;;;;;;;57.95;34.72;;;-1.20;93.10;;;;;;5092873;28;20871;-73
2020/12/04 09:00:50;;;;;;;60.07;35.50;;;-1.10;92.70;;;;;;5088774;28;20804;-73
2020/12/04 09:03:18;;;;;;;56.15;34.30;;;-1.20;92.80;;;;;;5110788;28;20400;-73
2020/12/04 09:05:45;;;;;;;56.08;34.30;;;-1.20;93.00;;;;;;5089230;28;20469;-74
2020/12/04 09:08:12;;;;;;;58.47;34.75;;;-1.30;92.90;;;;;;5092525;28;20515;-73
2020/12/04 09:10:39;;;;;;;54.27;33.07;;;-1.40;93.40;;;;;;5106638;28;20462;-73
2020/12/04 09:13:07;;;;;;;57.13;34.85;;;-1.20;93.00;;;;;;5109685;28;20427;-74
2020/12/04 09:15:39;;;;;;;61.72;36.85;;;-1.30;93.10;;;;;;5069220;28;20412;-74
2020/12/04 09:18:05;;;;;;;60.03;36.30;;;-1.40;93.40;;;;;;5091369;28;20685;-74
2020/12/04 09:20:34;;;;;;;61.00;36.40;;;-1.50;93.70;;;;;;5107313;28;20404;-73
2020/12/04 09:23:03;;;;;;;57.05;35.08;;;-1.50;93.90;;;;;;5092054;28;20876;-74
2020/12/04 09:25:31;;;;;;;55.17;33.70;;;-1.20;93.40;;;;;;5103045;27;20410;-74
2020/12/04 09:28:14;;;;;;;58.45;35.25;;;-1.10;92.50;;;;;;5080059;28;20443;-74
2020/12/04 09:30:40;;;;;;;60.10;35.40;;;-1.30;93.00;;;;;;5097703;28;20909;-74
2020/12/04 09:33:07;;;;;;;55.80;34.55;;;-1.40;93.30;;;;;;5109849;28;20481;-74
2020/12/04 09:35:33;;;;;;;57.17;35.20;;;-1.40;93.40;;;;;;5089763;28;20455;-74
2020/12/04 09:37:59;;;;;;;56.17;35.22;;;-1.50;93.70;;;;;;5089123;28;20422;-74
2020/12/04 09:40:26;;;;;;;60.15;34.58;;;-1.40;93.70;;;;;;5074565;28;20499;-75
2020/12/04 09:42:52;;;;;;;53.17;32.50;;;-1.10;93.30;;;;;;5089407;28;20904;-74
2020/12/04 09:45:19;;;;;;;54.17;33.35;;;-0.90;92.40;;;;;;5090414;28;20421;-74
2020/12/04 09:47:45;;;;;;;56.45;33.75;;;-0.90;92.30;;;;;;5088815;28;20444;-74
2020/12/04 09:50:15;;;;;;;55.72;34.83;;;-0.90;92.20;;;;;;5091580;28;20430;-74
2020/12/04 09:52:42;;;;;;;51.60;33.22;;;-1.10;92.60;;;;;;5082675;28;20408;-74
2020/12/04 09:55:10;;;;;;;51.03;31.77;;;-1.00;92.40;;;;;;5092122;28;20472;-75
2020/12/04 09:57:41;;;;;;;51.63;32.03;;;-0.80;92.00;;;;;;5086714;28;20439;-74
2020/12/04 10:00:08;;;;;;;45.75;29.80;;;-0.70;91.50;;;;;;5109294;28;20413;-74
2020/12/04 10:02:38;;;;;;;45.67;30.13;;;-0.60;91.00;;;;;;5105968;28;20412;-74
2020/12/04 10:05:05;;;;;;;48.67;31.27;;;-0.70;91.40;;;;;;5091444;28;20484;-76
2020/12/04 10:07:31;;;;;;;46.22;29.38;;;-0.60;91.30;;;;;;5106907;28;20495;-74
2020/12/04 10:09:58;;;;;;;40.90;26.93;;;-0.20;91.80;;;;;;5109391;28;20853;-74
2020/12/04 10:12:27;;;;;;;38.30;25.48;;;0.60;90.70;;;;;;5109235;28;20451;-74
2020/12/04 10:14:53;;;;;;;41.78;25.65;;;1.20;86.90;;;;;;5107137;28;20408;-74
2020/12/04 10:17:20;;;;;;;42.15;26.65;;;1.40;83.80;;;;;;5093926;28;20923;-74
2020/12/04 10:19:50;;;;;;;40.42;25.70;;;1.30;85.00;;;;;;5088125;28;20779;-74
2020/12/04 10:22:18;;;;;;;36.70;24.25;;;1.80;84.90;;;;;;5092007;28;20876;-74
2020/12/04 10:24:45;;;;;;;34.60;22.67;;;2.60;82.10;;;;;;5088170;28;20880;-74
2020/12/04 10:27:11;;;;;;;27.73;20.67;;;3.90;77.30;;;;;;5095709;28;20989;-75
2020/12/04 10:29:38;;;;;;;33.10;22.48;;;4.90;70.00;;;;;;5091684;28;20396;-75
2020/12/04 10:32:04;;;;;;;37.88;23.65;;;4.40;69.10;;;;;;5095494;28;20458;-75
2020/12/04 10:34:33;;;;;;;37.40;23.73;;;4.30;71.10;;;;;;5104467;28;20743;-75
2020/12/04 10:36:59;;;;;;;39.05;23.63;;;4.60;70.10;;;;;;5093479;28;20491;-75
2020/12/04 10:39:28;;;;;;;29.83;21.10;;;4.80;69.10;;;;;;5090680;28;20400;-75
2020/12/04 10:41:55;;;;;;;26.73;19.48;;;4.90;69.60;;;;;;5116516;27;20440;-75
2020/12/04 10:44:21;;;;;;;28.25;20.23;;;5.60;67.80;;;;;;5130824;27;20474;-75
2020/12/04 10:46:48;;;;;;;26.50;18.88;;;6.40;66.10;;;;;;5133206;27;20454;-75
2020/12/04 10:49:14;;;;;;;22.90;17.67;;;6.90;61.30;;;;;;5134095;27;20459;-75
2020/12/04 10:51:43;;;;;;;27.95;19.77;;;7.00;59.30;;;;;;5112733;27;20445;-74
2020/12/04 10:54:10;;;;;;;27.80;19.90;;;5.40;63.60;;;;;;5098298;27;20411;-75
2020/12/04 10:56:39;;;;;;;28.95;19.38;;;4.90;64.30;;;;;;5097800;28;20501;-75
2020/12/04 10:59:06;;;;;;;30.10;21.00;;;4.60;65.80;;;;;;5113048;28;20873;-75
2020/12/04 11:01:43;;;;;;;35.83;23.50;;;3.90;68.40;;;;;;5109907;28;20919;-74
2020/12/04 11:06:56;;;;;;;35.35;24.25;;;3.00;72.50;;;;;;5108290;28;20411;-74
2020/12/04 11:09:22;;;;;;;35.13;23.73;;;2.80;73.30;;;;;;5094979;28;20451;-74
2020/12/04 11:11:49;;;;;;;33.85;23.42;;;2.30;75.50;;;;;;5110440;27;20436;-74
2020/12/04 11:14:17;;;;;;;34.63;23.63;;;1.90;78.50;;;;;;5094687;28;20423;-75
2020/12/04 11:16:44;;;;;;;33.05;22.52;;;1.70;79.10;;;;;;5108495;28;20447;-76
2020/12/04 11:19:11;;;;;;;33.60;22.15;;;1.70;79.30;;;;;;5116453;27;20455;-74
2020/12/04 11:21:40;;;;;;;34.03;23.17;;;1.50;79.70;;;;;;5109574;28;20392;-74
2020/12/04 11:24:09;;;;;;;33.33;24.00;;;1.30;81.70;;;;;;5094732;28;20392;-74
2020/12/04 11:26:36;;;;;;;36.70;24.23;;;1.40;80.70;;;;;;5112197;28;20902;-74
2020/12/04 11:29:07;;;;;;;37.28;25.48;;;1.30;81.80;;;;;;5090905;28;20406;-74
2020/12/04 11:31:34;;;;;;;37.67;25.73;;;1.20;81.70;;;;;;5094696;28;20491;-74
2020/12/04 11:34:00;;;;;;;48.38;28.48;;;1.10;83.50;;;;;;5108767;28;20781;-75
2020/12/04 11:36:27;;;;;;;37.97;25.48;;;1.00;83.40;;;;;;5111997;28;20473;-75
2020/12/04 11:38:54;;;;;;;38.45;25.58;;;1.10;82.80;;;;;;5091204;28;20841;-74
2020/12/04 11:41:20;;;;;;;37.20;24.93;;;1.10;83.80;;;;;;5111664;28;20777;-74
2020/12/04 11:43:49;;;;;;;36.90;24.98;;;1.10;83.90;;;;;;5091104;28;20442;-75
2020/12/04 11:46:15;;;;;;;39.85;25.38;;;1.20;82.90;;;;;;5094416;28;20499;-75
2020/12/04 11:48:44;;;;;;;38.30;25.42;;;1.20;84.10;;;;;;5108989;28;21152;-75
2020/12/04 11:51:10;;;;;;;36.85;25.08;;;1.10;83.50;;;;;;5094470;28;20412;-74
2020/12/04 11:53:37;;;;;;;38.15;25.85;;;0.90;84.50;;;;;;5107750;28;20408;-74
2020/12/04 11:56:03;;;;;;;36.50;25.27;;;1.00;84.70;;;;;;5094544;28;20407;-74
2020/12/04 11:58:30;;;;;;;37.78;24.88;;;1.00;85.10;;;;;;5110858;28;20448;-75
2020/12/04 12:00:56;;;;;;;37.85;24.98;;;1.00;84.70;;;;;;5092583;28;20439;-74
2020/12/04 12:03:23;;;;;;;35.37;24.43;;;1.10;84.40;;;;;;5111960;28;20917;-75
2020/12/04 12:05:49;;;;;;;39.30;25.60;;;1.00;84.30;;;;;;5093453;27;20442;-75
2020/12/04 12:08:15;;;;;;;39.22;26.23;;;0.90;85.10;;;;;;5105532;28;20401;-75
2020/12/04 12:10:42;;;;;;;37.60;26.02;;;0.80;85.50;;;;;;5108212;28;20932;-75
2020/12/04 12:13:08;;;;;;;39.57;25.87;;;0.80;86.20;;;;;;5093946;28;20439;-75
2020/12/04 12:15:35;;;;;;;37.72;25.65;;;0.80;86.30;;;;;;5108231;28;20439;-75
2020/12/04 12:18:01;;;;;;;38.67;26.63;;;0.80;86.20;;;;;;5093115;28;20653;-75
2020/12/04 12:20:30;;;;;;;40.80;25.92;;;0.70;86.30;;;;;;5105542;28;20498;-75
2020/12/04 12:22:56;;;;;;;40.72;27.05;;;0.60;86.70;;;;;;5093644;28;20404;-75
2020/12/04 12:25:23;;;;;;;38.95;26.20;;;0.70;87.30;;;;;;5087162;28;20789;-74
2020/12/04 12:28:03;;;;;;;43.10;27.57;;;0.70;87.00;;;;;;5075325;28;20402;-75
2020/12/04 12:30:30;;;;;;;43.30;27.45;;;0.70;86.70;;;;;;5078655;28;20408;-74
2020/12/04 12:32:56;;;;;;;42.63;28.17;;;0.60;87.20;;;;;;5111613;28;20771;-74
2020/12/04 12:35:24;;;;;;;43.60;28.50;;;0.70;87.30;;;;;;5093426;28;20902;-74
2020/12/04 12:37:52;;;;;;;46.47;29.80;;;0.70;87.70;;;;;;5089780;28;20456;-74
2020/12/04 12:40:21;;;;;;;41.13;27.00;;;0.60;88.60;;;;;;5111770;28;20549;-74
2020/12/04 12:42:47;;;;;;;43.67;28.10;;;0.70;87.00;;;;;;5088122;28;20896;-74
2020/12/04 12:45:16;;;;;;;38.45;26.60;;;0.70;87.90;;;;;;5097664;28;20745;-73